sensor_id;sensor_type;location;lat;lon;timestamp;P1;durP1;ratioP1;P2;durP2;ratioP2
34643;SDS011;26931;43.498;-1.506;2023-05-29T00:00:16;31.83;;;20.52;;
34643;SDS011;26931;43.498;-1.506;2023-05-29T00:02:43;31.90;;;19.58;;
34643;SDS011;26931;43.498;-1.506;2023-05-29T00:05:10;31.98;;;19.55;;
34643;SDS011;26931;43.498;-1.506;2023-05-29T00:07:37;30.83;;;19.83;;
34643;SDS011;26931;43.498;-1.506;2023-05-29T00:10:04;31.88;;;18.70;;
34643;SDS011;26931;43.498;-1.506;2023-05-29T00:12:31;26.27;;;18.80;;
34643;SDS011;26931;43.498;-1.506;2023-05-29T00:14:57;28.15;;;19.13;;
34643;SDS011;26931;43.498;-1.506;2023-05-29T00:17:23;28.35;;;18.98;;
34643;SDS011;26931;43.498;-1.506;2023-05-29T00:19:49;28.50;;;18.75;;
34643;SDS011;26931;43.498;-1.506;2023-05-29T00:22:15;32.63;;;19.45;;
34643;SDS011;26931;43.498;-1.506;2023-05-29T00:24:41;30.73;;;18.70;;
34643;SDS011;26931;43.498;-1.506;2023-05-29T00:27:07;28.95;;;19.02;;
34643;SDS011;26931;43.498;-1.506;2023-05-29T00:29:34;28.20;;;18.00;;
34643;SDS011;26931;43.498;-1.506;2023-05-29T00:32:01;26.05;;;19.60;;
34643;SDS011;26931;43.498;-1.506;2023-05-29T00:34:27;27.15;;;18.98;;
34643;SDS011;26931;43.498;-1.506;2023-05-29T00:36:52;27.48;;;18.75;;
34643;SDS011;26931;43.498;-1.506;2023-05-29T00:39:20;28.63;;;19.17;;
34643;SDS011;26931;43.498;-1.506;2023-05-29T00:41:47;31.33;;;19.90;;
34643;SDS011;26931;43.498;-1.506;2023-05-29T00:44:16;29.27;;;18.45;;
34643;SDS011;26931;43.498;-1.506;2023-05-29T00:46:45;33.65;;;19.63;;
34643;SDS011;26931;43.498;-1.506;2023-05-29T00:49:12;30.38;;;19.52;;
34643;SDS011;26931;43.498;-1.506;2023-05-29T00:51:39;32.35;;;19.88;;
34643;SDS011;26931;43.498;-1.506;2023-05-29T00:54:06;27.25;;;20.08;;
34643;SDS011;26931;43.498;-1.506;2023-05-29T00:56:35;32.20;;;20.63;;
34643;SDS011;26931;43.498;-1.506;2023-05-29T00:59:01;32.08;;;20.77;;
34643;SDS011;26931;43.498;-1.506;2023-05-29T01:01:28;29.58;;;21.92;;
34643;SDS011;26931;43.498;-1.506;2023-05-29T01:03:56;28.30;;;20.73;;
34643;SDS011;26931;43.498;-1.506;2023-05-29T01:06:24;29.50;;;20.70;;
34643;SDS011;26931;43.498;-1.506;2023-05-29T01:08:50;27.38;;;19.95;;
34643;SDS011;26931;43.498;-1.506;2023-05-29T01:11:20;32.22;;;22.10;;
34643;SDS011;26931;43.498;-1.506;2023-05-29T01:14:20;34.13;;;22.70;;
34643;SDS011;26931;43.498;-1.506;2023-05-29T01:17:00;34.53;;;22.23;;
34643;SDS011;26931;43.498;-1.506;2023-05-29T01:25:11;31.73;;;21.70;;
34643;SDS011;26931;43.498;-1.506;2023-05-29T01:27:46;32.92;;;21.52;;
34643;SDS011;26931;43.498;-1.506;2023-05-29T01:30:14;29.42;;;20.42;;
34643;SDS011;26931;43.498;-1.506;2023-05-29T01:32:40;26.48;;;20.23;;
34643;SDS011;26931;43.498;-1.506;2023-05-29T01:35:07;28.35;;;20.30;;
34643;SDS011;26931;43.498;-1.506;2023-05-29T01:37:33;31.42;;;19.77;;
34643;SDS011;26931;43.498;-1.506;2023-05-29T01:39:59;28.75;;;20.40;;
34643;SDS011;26931;43.498;-1.506;2023-05-29T01:42:26;32.20;;;21.10;;
34643;SDS011;26931;43.498;-1.506;2023-05-29T01:44:54;32.30;;;20.65;;
34643;SDS011;26931;43.498;-1.506;2023-05-29T01:47:21;26.67;;;19.42;;
34643;SDS011;26931;43.498;-1.506;2023-05-29T01:49:49;29.25;;;20.80;;
34643;SDS011;26931;43.498;-1.506;2023-05-29T01:52:16;25.55;;;18.23;;
34643;SDS011;26931;43.498;-1.506;2023-05-29T01:54:43;31.17;;;20.35;;
34643;SDS011;26931;43.498;-1.506;2023-05-29T01:57:09;28.95;;;20.08;;
34643;SDS011;26931;43.498;-1.506;2023-05-29T01:59:35;32.97;;;20.73;;
34643;SDS011;26931;43.498;-1.506;2023-05-29T02:02:06;30.52;;;20.65;;
34643;SDS011;26931;43.498;-1.506;2023-05-29T02:04:33;29.65;;;21.73;;
34643;SDS011;26931;43.498;-1.506;2023-05-29T02:06:59;31.13;;;22.00;;
34643;SDS011;26931;43.498;-1.506;2023-05-29T02:09:24;34.63;;;22.70;;
34643;SDS011;26931;43.498;-1.506;2023-05-29T02:11:51;33.58;;;21.90;;
34643;SDS011;26931;43.498;-1.506;2023-05-29T02:14:16;33.40;;;21.48;;
34643;SDS011;26931;43.498;-1.506;2023-05-29T02:16:42;28.48;;;19.55;;
34643;SDS011;26931;43.498;-1.506;2023-05-29T02:19:09;35.10;;;22.80;;
34643;SDS011;26931;43.498;-1.506;2023-05-29T02:21:38;30.60;;;22.35;;
34643;SDS011;26931;43.498;-1.506;2023-05-29T02:24:07;29.92;;;20.95;;
34643;SDS011;26931;43.498;-1.506;2023-05-29T02:26:33;28.55;;;21.83;;
34643;SDS011;26931;43.498;-1.506;2023-05-29T02:29:01;32.78;;;21.45;;
34643;SDS011;26931;43.498;-1.506;2023-05-29T02:31:27;29.63;;;20.85;;
34643;SDS011;26931;43.498;-1.506;2023-05-29T02:33:53;31.55;;;20.75;;
34643;SDS011;26931;43.498;-1.506;2023-05-29T02:36:19;37.10;;;22.75;;
34643;SDS011;26931;43.498;-1.506;2023-05-29T02:38:45;29.17;;;21.85;;
34643;SDS011;26931;43.498;-1.506;2023-05-29T02:41:11;34.75;;;22.40;;
34643;SDS011;26931;43.498;-1.506;2023-05-29T02:43:36;27.75;;;20.98;;
34643;SDS011;26931;43.498;-1.506;2023-05-29T02:46:02;32.70;;;21.55;;
34643;SDS011;26931;43.498;-1.506;2023-05-29T02:48:28;40.85;;;22.95;;
34643;SDS011;26931;43.498;-1.506;2023-05-29T02:50:54;32.47;;;21.77;;
34643;SDS011;26931;43.498;-1.506;2023-05-29T02:53:20;33.28;;;21.30;;
34643;SDS011;26931;43.498;-1.506;2023-05-29T02:55:45;32.72;;;22.58;;
34643;SDS011;26931;43.498;-1.506;2023-05-29T02:58:12;37.83;;;21.58;;
34643;SDS011;26931;43.498;-1.506;2023-05-29T03:00:38;35.05;;;19.92;;
34643;SDS011;26931;43.498;-1.506;2023-05-29T03:03:04;31.00;;;20.75;;
34643;SDS011;26931;43.498;-1.506;2023-05-29T03:05:30;35.17;;;21.38;;
34643;SDS011;26931;43.498;-1.506;2023-05-29T03:07:56;34.17;;;19.95;;
34643;SDS011;26931;43.498;-1.506;2023-05-29T03:10:22;31.33;;;18.95;;
34643;SDS011;26931;43.498;-1.506;2023-05-29T03:12:48;28.55;;;18.27;;
34643;SDS011;26931;43.498;-1.506;2023-05-29T03:15:14;31.92;;;19.92;;
34643;SDS011;26931;43.498;-1.506;2023-05-29T03:17:40;31.02;;;19.60;;
34643;SDS011;26931;43.498;-1.506;2023-05-29T03:20:06;32.13;;;19.52;;
34643;SDS011;26931;43.498;-1.506;2023-05-29T03:22:35;35.05;;;20.10;;
34643;SDS011;26931;43.498;-1.506;2023-05-29T03:25:02;32.70;;;19.10;;
34643;SDS011;26931;43.498;-1.506;2023-05-29T03:27:29;29.90;;;18.92;;
34643;SDS011;26931;43.498;-1.506;2023-05-29T03:29:55;31.42;;;18.90;;
34643;SDS011;26931;43.498;-1.506;2023-05-29T03:32:23;37.35;;;21.13;;
34643;SDS011;26931;43.498;-1.506;2023-05-29T03:34:49;30.13;;;19.48;;
34643;SDS011;26931;43.498;-1.506;2023-05-29T03:37:15;34.85;;;20.25;;
34643;SDS011;26931;43.498;-1.506;2023-05-29T03:39:41;34.05;;;19.80;;
34643;SDS011;26931;43.498;-1.506;2023-05-29T03:42:07;34.15;;;19.98;;
34643;SDS011;26931;43.498;-1.506;2023-05-29T03:44:33;33.35;;;20.33;;
34643;SDS011;26931;43.498;-1.506;2023-05-29T03:46:59;40.58;;;20.95;;
34643;SDS011;26931;43.498;-1.506;2023-05-29T03:49:26;36.20;;;20.63;;
34643;SDS011;26931;43.498;-1.506;2023-05-29T03:51:52;34.60;;;21.33;;
34643;SDS011;26931;43.498;-1.506;2023-05-29T03:54:18;40.47;;;21.13;;
34643;SDS011;26931;43.498;-1.506;2023-05-29T03:56:44;36.53;;;19.40;;
34643;SDS011;26931;43.498;-1.506;2023-05-29T03:59:10;33.60;;;20.75;;
34643;SDS011;26931;43.498;-1.506;2023-05-29T04:01:36;36.92;;;20.75;;
34643;SDS011;26931;43.498;-1.506;2023-05-29T04:04:02;34.50;;;20.50;;
34643;SDS011;26931;43.498;-1.506;2023-05-29T04:06:28;32.90;;;19.67;;
34643;SDS011;26931;43.498;-1.506;2023-05-29T04:08:57;36.50;;;20.75;;
34643;SDS011;26931;43.498;-1.506;2023-05-29T04:11:23;31.52;;;20.08;;
34643;SDS011;26931;43.498;-1.506;2023-05-29T04:13:49;31.98;;;20.63;;
34643;SDS011;26931;43.498;-1.506;2023-05-29T04:16:15;34.30;;;19.88;;
34643;SDS011;26931;43.498;-1.506;2023-05-29T04:18:41;38.00;;;21.10;;
34643;SDS011;26931;43.498;-1.506;2023-05-29T04:21:07;33.72;;;22.27;;
34643;SDS011;26931;43.498;-1.506;2023-05-29T04:23:33;35.42;;;22.15;;
34643;SDS011;26931;43.498;-1.506;2023-05-29T04:25:59;39.00;;;23.23;;
34643;SDS011;26931;43.498;-1.506;2023-05-29T04:28:28;33.92;;;22.67;;
34643;SDS011;26931;43.498;-1.506;2023-05-29T04:30:54;34.22;;;21.08;;
34643;SDS011;26931;43.498;-1.506;2023-05-29T04:33:21;35.42;;;22.27;;
34643;SDS011;26931;43.498;-1.506;2023-05-29T04:35:48;39.35;;;23.10;;
34643;SDS011;26931;43.498;-1.506;2023-05-29T04:38:15;38.88;;;22.75;;
34643;SDS011;26931;43.498;-1.506;2023-05-29T04:40:41;31.38;;;22.10;;
34643;SDS011;26931;43.498;-1.506;2023-05-29T04:43:09;38.30;;;22.13;;
34643;SDS011;26931;43.498;-1.506;2023-05-29T04:45:38;34.50;;;22.45;;
34643;SDS011;26931;43.498;-1.506;2023-05-29T04:48:06;38.35;;;21.70;;
34643;SDS011;26931;43.498;-1.506;2023-05-29T04:50:39;35.25;;;21.52;;
34643;SDS011;26931;43.498;-1.506;2023-05-29T04:53:09;34.97;;;21.05;;
34643;SDS011;26931;43.498;-1.506;2023-05-29T04:55:35;40.35;;;21.52;;
34643;SDS011;26931;43.498;-1.506;2023-05-29T04:58:02;33.08;;;20.13;;
34643;SDS011;26931;43.498;-1.506;2023-05-29T05:00:28;32.45;;;20.65;;
34643;SDS011;26931;43.498;-1.506;2023-05-29T05:02:54;32.65;;;19.90;;
34643;SDS011;26931;43.498;-1.506;2023-05-29T05:05:20;31.70;;;20.48;;
34643;SDS011;26931;43.498;-1.506;2023-05-29T05:07:46;29.60;;;19.42;;
34643;SDS011;26931;43.498;-1.506;2023-05-29T05:10:12;31.45;;;19.05;;
34643;SDS011;26931;43.498;-1.506;2023-05-29T05:12:38;32.47;;;20.13;;
34643;SDS011;26931;43.498;-1.506;2023-05-29T05:15:04;32.30;;;19.88;;
34643;SDS011;26931;43.498;-1.506;2023-05-29T05:17:34;37.25;;;22.23;;
34643;SDS011;26931;43.498;-1.506;2023-05-29T05:20:03;37.88;;;21.33;;
34643;SDS011;26931;43.498;-1.506;2023-05-29T05:22:31;36.45;;;21.75;;
34643;SDS011;26931;43.498;-1.506;2023-05-29T05:24:57;36.85;;;21.73;;
34643;SDS011;26931;43.498;-1.506;2023-05-29T05:27:24;35.70;;;21.05;;
34643;SDS011;26931;43.498;-1.506;2023-05-29T05:29:50;35.97;;;21.15;;
34643;SDS011;26931;43.498;-1.506;2023-05-29T05:32:16;33.55;;;20.90;;
34643;SDS011;26931;43.498;-1.506;2023-05-29T05:34:42;34.13;;;19.67;;
34643;SDS011;26931;43.498;-1.506;2023-05-29T05:37:08;34.95;;;20.58;;
34643;SDS011;26931;43.498;-1.506;2023-05-29T05:39:38;32.63;;;21.08;;
34643;SDS011;26931;43.498;-1.506;2023-05-29T05:42:04;32.08;;;19.38;;
34643;SDS011;26931;43.498;-1.506;2023-05-29T05:44:30;27.60;;;18.38;;
34643;SDS011;26931;43.498;-1.506;2023-05-29T05:46:56;30.42;;;18.95;;
34643;SDS011;26931;43.498;-1.506;2023-05-29T05:49:22;30.92;;;19.73;;
34643;SDS011;26931;43.498;-1.506;2023-05-29T05:51:48;27.30;;;18.92;;
34643;SDS011;26931;43.498;-1.506;2023-05-29T05:54:15;25.88;;;17.38;;
34643;SDS011;26931;43.498;-1.506;2023-05-29T05:56:41;32.90;;;18.23;;
34643;SDS011;26931;43.498;-1.506;2023-05-29T05:59:07;68.78;;;21.40;;
34643;SDS011;26931;43.498;-1.506;2023-05-29T06:01:33;36.72;;;19.90;;
34643;SDS011;26931;43.498;-1.506;2023-05-29T06:03:59;30.83;;;20.15;;
34643;SDS011;26931;43.498;-1.506;2023-05-29T06:06:25;32.45;;;18.85;;
34643;SDS011;26931;43.498;-1.506;2023-05-29T06:08:51;34.75;;;19.05;;
34643;SDS011;26931;43.498;-1.506;2023-05-29T06:11:17;32.33;;;19.83;;
34643;SDS011;26931;43.498;-1.506;2023-05-29T06:13:43;37.63;;;20.73;;
34643;SDS011;26931;43.498;-1.506;2023-05-29T06:16:09;32.15;;;18.70;;
34643;SDS011;26931;43.498;-1.506;2023-05-29T06:18:35;34.08;;;20.02;;
34643;SDS011;26931;43.498;-1.506;2023-05-29T06:21:01;34.22;;;19.95;;
34643;SDS011;26931;43.498;-1.506;2023-05-29T06:23:27;32.28;;;20.38;;
34643;SDS011;26931;43.498;-1.506;2023-05-29T06:25:53;32.67;;;20.92;;
34643;SDS011;26931;43.498;-1.506;2023-05-29T06:28:20;29.20;;;19.63;;
34643;SDS011;26931;43.498;-1.506;2023-05-29T06:30:46;27.92;;;19.02;;
34643;SDS011;26931;43.498;-1.506;2023-05-29T06:33:12;41.35;;;23.08;;
34643;SDS011;26931;43.498;-1.506;2023-05-29T06:35:38;29.95;;;20.15;;
34643;SDS011;26931;43.498;-1.506;2023-05-29T06:38:07;32.95;;;21.50;;
34643;SDS011;26931;43.498;-1.506;2023-05-29T06:40:36;34.63;;;20.17;;
34643;SDS011;26931;43.498;-1.506;2023-05-29T06:43:02;35.65;;;20.63;;
34643;SDS011;26931;43.498;-1.506;2023-05-29T06:45:28;33.13;;;19.95;;
34643;SDS011;26931;43.498;-1.506;2023-05-29T06:47:54;27.00;;;19.20;;
34643;SDS011;26931;43.498;-1.506;2023-05-29T06:50:20;32.60;;;19.58;;
34643;SDS011;26931;43.498;-1.506;2023-05-29T06:52:46;33.70;;;21.67;;
34643;SDS011;26931;43.498;-1.506;2023-05-29T06:55:12;37.00;;;22.38;;
34643;SDS011;26931;43.498;-1.506;2023-05-29T06:57:38;35.40;;;22.42;;
34643;SDS011;26931;43.498;-1.506;2023-05-29T07:00:05;32.22;;;20.98;;
34643;SDS011;26931;43.498;-1.506;2023-05-29T07:02:32;29.83;;;20.58;;
34643;SDS011;26931;43.498;-1.506;2023-05-29T07:04:58;33.10;;;21.42;;
34643;SDS011;26931;43.498;-1.506;2023-05-29T07:07:24;35.17;;;20.70;;
34643;SDS011;26931;43.498;-1.506;2023-05-29T07:09:50;27.15;;;20.20;;
34643;SDS011;26931;43.498;-1.506;2023-05-29T07:12:16;29.85;;;20.27;;
34643;SDS011;26931;43.498;-1.506;2023-05-29T07:14:42;34.47;;;21.73;;
34643;SDS011;26931;43.498;-1.506;2023-05-29T07:17:09;34.63;;;21.30;;
34643;SDS011;26931;43.498;-1.506;2023-05-29T07:19:35;28.02;;;19.75;;
34643;SDS011;26931;43.498;-1.506;2023-05-29T07:22:01;27.15;;;19.63;;
34643;SDS011;26931;43.498;-1.506;2023-05-29T07:24:27;30.80;;;21.50;;
34643;SDS011;26931;43.498;-1.506;2023-05-29T07:26:53;33.00;;;22.20;;
34643;SDS011;26931;43.498;-1.506;2023-05-29T07:29:20;33.42;;;19.52;;
34643;SDS011;26931;43.498;-1.506;2023-05-29T07:31:48;24.50;;;18.65;;
34643;SDS011;26931;43.498;-1.506;2023-05-29T07:34:14;30.42;;;18.83;;
34643;SDS011;26931;43.498;-1.506;2023-05-29T07:39:25;29.65;;;20.45;;
34643;SDS011;26931;43.498;-1.506;2023-05-29T07:41:51;29.00;;;18.33;;
34643;SDS011;26931;43.498;-1.506;2023-05-29T07:44:17;27.77;;;18.92;;
34643;SDS011;26931;43.498;-1.506;2023-05-29T07:46:43;33.00;;;20.02;;
34643;SDS011;26931;43.498;-1.506;2023-05-29T07:49:09;30.98;;;21.08;;
34643;SDS011;26931;43.498;-1.506;2023-05-29T07:51:35;25.05;;;18.00;;
34643;SDS011;26931;43.498;-1.506;2023-05-29T07:54:02;30.38;;;18.73;;
34643;SDS011;26931;43.498;-1.506;2023-05-29T07:56:28;28.35;;;19.77;;
34643;SDS011;26931;43.498;-1.506;2023-05-29T07:58:56;32.00;;;18.08;;
34643;SDS011;26931;43.498;-1.506;2023-05-29T08:01:22;28.30;;;19.63;;
34643;SDS011;26931;43.498;-1.506;2023-05-29T08:03:49;26.50;;;17.50;;
34643;SDS011;26931;43.498;-1.506;2023-05-29T08:06:15;34.50;;;19.52;;
34643;SDS011;26931;43.498;-1.506;2023-05-29T08:08:41;29.90;;;18.58;;
34643;SDS011;26931;43.498;-1.506;2023-05-29T08:11:08;27.83;;;17.90;;
34643;SDS011;26931;43.498;-1.506;2023-05-29T08:13:34;34.50;;;19.73;;
34643;SDS011;26931;43.498;-1.506;2023-05-29T08:16:00;29.25;;;19.65;;
34643;SDS011;26931;43.498;-1.506;2023-05-29T08:18:25;30.38;;;19.08;;
34643;SDS011;26931;43.498;-1.506;2023-05-29T08:20:52;24.25;;;19.05;;
34643;SDS011;26931;43.498;-1.506;2023-05-29T08:23:18;28.67;;;17.75;;
34643;SDS011;26931;43.498;-1.506;2023-05-29T08:25:43;35.13;;;20.42;;
34643;SDS011;26931;43.498;-1.506;2023-05-29T08:28:10;24.45;;;18.42;;
34643;SDS011;26931;43.498;-1.506;2023-05-29T08:30:35;29.30;;;19.10;;
34643;SDS011;26931;43.498;-1.506;2023-05-29T08:33:02;26.48;;;17.83;;
34643;SDS011;26931;43.498;-1.506;2023-05-29T08:35:28;32.13;;;18.92;;
34643;SDS011;26931;43.498;-1.506;2023-05-29T08:37:55;27.55;;;17.90;;
34643;SDS011;26931;43.498;-1.506;2023-05-29T08:40:21;27.20;;;18.45;;
34643;SDS011;26931;43.498;-1.506;2023-05-29T08:42:47;23.52;;;17.38;;
34643;SDS011;26931;43.498;-1.506;2023-05-29T08:45:19;25.20;;;17.80;;
34643;SDS011;26931;43.498;-1.506;2023-05-29T08:47:48;29.95;;;18.08;;
34643;SDS011;26931;43.498;-1.506;2023-05-29T08:50:17;25.70;;;17.88;;
34643;SDS011;26931;43.498;-1.506;2023-05-29T08:52:46;24.65;;;17.33;;
34643;SDS011;26931;43.498;-1.506;2023-05-29T08:55:12;27.98;;;17.98;;
34643;SDS011;26931;43.498;-1.506;2023-05-29T08:57:39;29.95;;;17.98;;
34643;SDS011;26931;43.498;-1.506;2023-05-29T09:00:08;28.05;;;17.17;;
34643;SDS011;26931;43.498;-1.506;2023-05-29T09:02:41;28.08;;;17.15;;
34643;SDS011;26931;43.498;-1.506;2023-05-29T09:05:10;28.70;;;17.73;;
34643;SDS011;26931;43.498;-1.506;2023-05-29T09:07:37;27.80;;;17.30;;
34643;SDS011;26931;43.498;-1.506;2023-05-29T09:10:08;23.55;;;16.38;;
34643;SDS011;26931;43.498;-1.506;2023-05-29T09:12:34;28.30;;;16.77;;
34643;SDS011;26931;43.498;-1.506;2023-05-29T09:15:00;24.38;;;17.05;;
34643;SDS011;26931;43.498;-1.506;2023-05-29T09:17:30;28.90;;;17.52;;
34643;SDS011;26931;43.498;-1.506;2023-05-29T09:19:59;23.77;;;17.15;;
34643;SDS011;26931;43.498;-1.506;2023-05-29T09:22:25;21.70;;;16.80;;
34643;SDS011;26931;43.498;-1.506;2023-05-29T09:24:51;25.33;;;17.15;;
34643;SDS011;26931;43.498;-1.506;2023-05-29T09:27:18;26.00;;;16.67;;
34643;SDS011;26931;43.498;-1.506;2023-05-29T09:29:45;24.65;;;16.75;;
34643;SDS011;26931;43.498;-1.506;2023-05-29T09:32:13;28.20;;;18.58;;
34643;SDS011;26931;43.498;-1.506;2023-05-29T09:34:41;20.00;;;16.23;;
34643;SDS011;26931;43.498;-1.506;2023-05-29T09:37:07;29.33;;;17.88;;
34643;SDS011;26931;43.498;-1.506;2023-05-29T09:39:44;23.95;;;17.55;;
34643;SDS011;26931;43.498;-1.506;2023-05-29T09:42:11;28.02;;;17.75;;
34643;SDS011;26931;43.498;-1.506;2023-05-29T09:44:39;25.52;;;17.75;;
34643;SDS011;26931;43.498;-1.506;2023-05-29T09:47:16;26.75;;;18.63;;
34643;SDS011;26931;43.498;-1.506;2023-05-29T09:49:42;26.25;;;17.85;;
34643;SDS011;26931;43.498;-1.506;2023-05-29T09:52:12;26.35;;;18.35;;
34643;SDS011;26931;43.498;-1.506;2023-05-29T09:54:41;20.33;;;16.52;;
34643;SDS011;26931;43.498;-1.506;2023-05-29T09:57:10;21.80;;;16.05;;
34643;SDS011;26931;43.498;-1.506;2023-05-29T09:59:39;29.65;;;17.08;;
34643;SDS011;26931;43.498;-1.506;2023-05-29T10:02:09;25.83;;;17.17;;
34643;SDS011;26931;43.498;-1.506;2023-05-29T10:04:37;26.35;;;17.60;;
34643;SDS011;26931;43.498;-1.506;2023-05-29T10:07:08;22.80;;;16.10;;
34643;SDS011;26931;43.498;-1.506;2023-05-29T10:09:44;21.75;;;15.48;;
34643;SDS011;26931;43.498;-1.506;2023-05-29T10:12:11;21.85;;;15.30;;
34643;SDS011;26931;43.498;-1.506;2023-05-29T10:14:38;20.48;;;15.98;;
34643;SDS011;26931;43.498;-1.506;2023-05-29T10:17:07;20.02;;;15.70;;
34643;SDS011;26931;43.498;-1.506;2023-05-29T10:19:37;20.23;;;15.55;;
34643;SDS011;26931;43.498;-1.506;2023-05-29T10:22:04;22.45;;;16.02;;
34643;SDS011;26931;43.498;-1.506;2023-05-29T10:24:31;21.05;;;14.88;;
34643;SDS011;26931;43.498;-1.506;2023-05-29T10:26:58;20.42;;;15.38;;
34643;SDS011;26931;43.498;-1.506;2023-05-29T10:29:29;23.67;;;15.57;;
34643;SDS011;26931;43.498;-1.506;2023-05-29T10:37:40;23.20;;;14.93;;
34643;SDS011;26931;43.498;-1.506;2023-05-29T10:40:11;19.92;;;14.95;;
34643;SDS011;26931;43.498;-1.506;2023-05-29T10:45:11;19.75;;;15.05;;
34643;SDS011;26931;43.498;-1.506;2023-05-29T10:48:35;17.40;;;13.30;;
34643;SDS011;26931;43.498;-1.506;2023-05-29T10:51:01;18.67;;;14.30;;
34643;SDS011;26931;43.498;-1.506;2023-05-29T10:53:31;22.80;;;15.25;;
34643;SDS011;26931;43.498;-1.506;2023-05-29T10:55:58;24.70;;;15.90;;
34643;SDS011;26931;43.498;-1.506;2023-05-29T10:58:26;20.95;;;15.85;;
34643;SDS011;26931;43.498;-1.506;2023-05-29T11:00:53;20.25;;;15.95;;
34643;SDS011;26931;43.498;-1.506;2023-05-29T11:03:22;19.25;;;14.52;;
34643;SDS011;26931;43.498;-1.506;2023-05-29T11:05:55;19.73;;;14.55;;
34643;SDS011;26931;43.498;-1.506;2023-05-29T11:13:52;22.90;;;15.80;;
34643;SDS011;26931;43.498;-1.506;2023-05-29T11:18:48;20.77;;;14.30;;
34643;SDS011;26931;43.498;-1.506;2023-05-29T11:21:29;18.40;;;13.82;;
34643;SDS011;26931;43.498;-1.506;2023-05-29T11:26:50;18.67;;;14.43;;
34643;SDS011;26931;43.498;-1.506;2023-05-29T11:29:21;21.80;;;15.27;;
34643;SDS011;26931;43.498;-1.506;2023-05-29T11:31:48;21.10;;;14.32;;
34643;SDS011;26931;43.498;-1.506;2023-05-29T11:34:21;20.48;;;14.75;;
34643;SDS011;26931;43.498;-1.506;2023-05-29T11:36:48;24.65;;;14.52;;
34643;SDS011;26931;43.498;-1.506;2023-05-29T11:39:16;20.13;;;15.18;;
34643;SDS011;26931;43.498;-1.506;2023-05-29T11:41:42;17.85;;;13.85;;
34643;SDS011;26931;43.498;-1.506;2023-05-29T11:44:07;21.77;;;14.68;;
34643;SDS011;26931;43.498;-1.506;2023-05-29T11:46:34;19.80;;;14.48;;
34643;SDS011;26931;43.498;-1.506;2023-05-29T11:49:00;25.15;;;15.45;;
34643;SDS011;26931;43.498;-1.506;2023-05-29T11:51:26;19.85;;;14.50;;
34643;SDS011;26931;43.498;-1.506;2023-05-29T11:53:52;21.35;;;14.95;;
34643;SDS011;26931;43.498;-1.506;2023-05-29T11:56:23;19.95;;;15.32;;
34643;SDS011;26931;43.498;-1.506;2023-05-29T11:58:52;21.42;;;14.77;;
34643;SDS011;26931;43.498;-1.506;2023-05-29T12:01:23;23.55;;;16.27;;
34643;SDS011;26931;43.498;-1.506;2023-05-29T12:03:49;20.95;;;15.40;;
34643;SDS011;26931;43.498;-1.506;2023-05-29T12:06:15;20.20;;;14.57;;
34643;SDS011;26931;43.498;-1.506;2023-05-29T12:08:41;20.15;;;14.73;;
34643;SDS011;26931;43.498;-1.506;2023-05-29T12:11:08;20.83;;;14.77;;
34643;SDS011;26931;43.498;-1.506;2023-05-29T12:13:34;23.63;;;15.57;;
34643;SDS011;26931;43.498;-1.506;2023-05-29T12:16:02;23.40;;;16.48;;
34643;SDS011;26931;43.498;-1.506;2023-05-29T12:18:29;22.63;;;15.43;;
34643;SDS011;26931;43.498;-1.506;2023-05-29T12:21:01;22.63;;;15.32;;
34643;SDS011;26931;43.498;-1.506;2023-05-29T12:23:29;25.58;;;16.80;;
34643;SDS011;26931;43.498;-1.506;2023-05-29T12:25:55;24.08;;;16.55;;
34643;SDS011;26931;43.498;-1.506;2023-05-29T12:28:21;24.27;;;16.15;;
34643;SDS011;26931;43.498;-1.506;2023-05-29T12:30:48;22.52;;;16.05;;
34643;SDS011;26931;43.498;-1.506;2023-05-29T12:33:33;23.15;;;15.55;;
34643;SDS011;26931;43.498;-1.506;2023-05-29T12:36:03;22.10;;;14.98;;
34643;SDS011;26931;43.498;-1.506;2023-05-29T12:38:47;21.75;;;16.05;;
34643;SDS011;26931;43.498;-1.506;2023-05-29T12:41:32;21.35;;;14.38;;
34643;SDS011;26931;43.498;-1.506;2023-05-29T12:44:01;19.55;;;14.32;;
34643;SDS011;26931;43.498;-1.506;2023-05-29T12:46:34;21.27;;;14.73;;
34643;SDS011;26931;43.498;-1.506;2023-05-29T12:49:12;20.85;;;13.85;;
34643;SDS011;26931;43.498;-1.506;2023-05-29T12:51:42;20.80;;;14.68;;
34643;SDS011;26931;43.498;-1.506;2023-05-29T12:54:11;23.08;;;15.32;;
34643;SDS011;26931;43.498;-1.506;2023-05-29T12:56:38;19.15;;;13.80;;
34643;SDS011;26931;43.498;-1.506;2023-05-29T12:59:08;19.83;;;14.75;;
34643;SDS011;26931;43.498;-1.506;2023-05-29T13:01:36;24.45;;;15.73;;
34643;SDS011;26931;43.498;-1.506;2023-05-29T13:04:03;21.20;;;15.10;;
34643;SDS011;26931;43.498;-1.506;2023-05-29T13:06:32;23.90;;;14.88;;
34643;SDS011;26931;43.498;-1.506;2023-05-29T13:08:58;19.38;;;14.25;;
34643;SDS011;26931;43.498;-1.506;2023-05-29T13:11:24;21.88;;;15.00;;
34643;SDS011;26931;43.498;-1.506;2023-05-29T13:13:50;22.05;;;15.15;;
34643;SDS011;26931;43.498;-1.506;2023-05-29T13:16:16;25.40;;;16.27;;
34643;SDS011;26931;43.498;-1.506;2023-05-29T13:18:42;25.35;;;16.85;;
34643;SDS011;26931;43.498;-1.506;2023-05-29T13:21:08;22.30;;;15.02;;
34643;SDS011;26931;43.498;-1.506;2023-05-29T13:23:38;23.02;;;16.45;;
34643;SDS011;26931;43.498;-1.506;2023-05-29T13:26:07;59.70;;;19.13;;
34643;SDS011;26931;43.498;-1.506;2023-05-29T13:28:33;46.95;;;17.67;;
34643;SDS011;26931;43.498;-1.506;2023-05-29T13:30:59;24.48;;;16.65;;
34643;SDS011;26931;43.498;-1.506;2023-05-29T13:33:25;29.17;;;16.48;;
34643;SDS011;26931;43.498;-1.506;2023-05-29T13:35:51;25.13;;;15.75;;
34643;SDS011;26931;43.498;-1.506;2023-05-29T13:38:16;26.67;;;17.17;;
34643;SDS011;26931;43.498;-1.506;2023-05-29T13:40:42;29.42;;;16.27;;
34643;SDS011;26931;43.498;-1.506;2023-05-29T13:43:08;28.30;;;17.38;;
34643;SDS011;26931;43.498;-1.506;2023-05-29T13:45:33;25.95;;;17.50;;
34643;SDS011;26931;43.498;-1.506;2023-05-29T13:47:59;27.15;;;16.55;;
34643;SDS011;26931;43.498;-1.506;2023-05-29T13:50:25;27.42;;;17.55;;
34643;SDS011;26931;43.498;-1.506;2023-05-29T13:52:52;29.05;;;17.13;;
34643;SDS011;26931;43.498;-1.506;2023-05-29T13:55:17;24.88;;;16.98;;
34643;SDS011;26931;43.498;-1.506;2023-05-29T13:57:43;26.67;;;15.98;;
34643;SDS011;26931;43.498;-1.506;2023-05-29T14:00:10;29.80;;;16.10;;
34643;SDS011;26931;43.498;-1.506;2023-05-29T14:02:37;27.23;;;17.67;;
34643;SDS011;26931;43.498;-1.506;2023-05-29T14:05:03;30.15;;;16.15;;
34643;SDS011;26931;43.498;-1.506;2023-05-29T14:07:31;24.88;;;16.42;;
34643;SDS011;26931;43.498;-1.506;2023-05-29T14:09:56;23.77;;;15.90;;
34643;SDS011;26931;43.498;-1.506;2023-05-29T14:12:22;29.40;;;15.82;;
34643;SDS011;26931;43.498;-1.506;2023-05-29T14:14:48;25.67;;;16.27;;
34643;SDS011;26931;43.498;-1.506;2023-05-29T14:17:14;33.08;;;16.75;;
34643;SDS011;26931;43.498;-1.506;2023-05-29T14:19:40;26.25;;;17.92;;
34643;SDS011;26931;43.498;-1.506;2023-05-29T14:22:06;34.10;;;19.42;;
34643;SDS011;26931;43.498;-1.506;2023-05-29T14:24:31;32.10;;;17.33;;
34643;SDS011;26931;43.498;-1.506;2023-05-29T14:26:57;23.52;;;16.52;;
34643;SDS011;26931;43.498;-1.506;2023-05-29T14:29:23;28.98;;;17.77;;
34643;SDS011;26931;43.498;-1.506;2023-05-29T14:31:49;24.98;;;17.20;;
34643;SDS011;26931;43.498;-1.506;2023-05-29T14:34:14;22.30;;;16.17;;
34643;SDS011;26931;43.498;-1.506;2023-05-29T14:36:40;24.45;;;15.32;;